Terminal Aerodrome Forecast
Issued by NWS

Home | Current Version | Previous Version | Text Only | Print | Product List | Glossary On
Versions: 1 2 3 4 5 6 7 8 9 10 11 12 13 14 15 16 17 18
000
FTUS43 KLSX 041618 AAA
TAFUIN
TAF AMD
KUIN 041618Z 0416/0512 15005KT P6SM VCTS BKN060CB
     FM041700 15005KT P6SM VCTS SCT050CB BKN100
      TEMPO 0418/0420 3SM -TSRA OVC045CB
     FM042100 VRB04KT P6SM BKN060 OVC120
     FM050300 10004KT P6SM VCSH BKN040=

USA.gov is the U.S. government's official web portal to all federal, state and local government web resources and services.